Paynesville, Minnesota
Current Conditions -  °F | °C
As of 3:54 PM on Monday 22 Dec 2014 (Local Time) from KPEX Reporting Station
Haze Haze  
Wind Chill: 23°   Ceiling: 500
Heat Index: 32°   Visibility: 5mi
Dew Point: 32°   Wind: 13mph
Humidity: 100%   Direction: 60°ENE
Pressure: 29.55"   Gusts: 17mph
Location:  45.38°N, 94.71°W
Report Text: KPEX 222154Z AUTO 06011G15KT 5SM BR OVC005 00/00 A2955 RMK AO2 T00000000
Loading
Personal Weather Stations






























Interactive Weather Map New forecast layout! Learn more

10-Day Weather Forecast

Advertisements
Track Severe Weather on mobile